createdAt,value
2022-08-03T00:00:30.798Z,96036.00
2022-08-03T00:02:57.898Z,96035.00
2022-08-03T00:05:24.918Z,96040.00
2022-08-03T00:07:51.904Z,96035.00
2022-08-03T00:10:20.111Z,96032.00
2022-08-03T00:12:47.105Z,96031.00
2022-08-03T00:15:16.410Z,96033.00
2022-08-03T00:17:53.051Z,96029.00
2022-08-03T00:20:21.965Z,96033.00
2022-08-03T00:22:50.046Z,96028.00
2022-08-03T00:25:17.778Z,96030.00
2022-08-03T00:27:44.788Z,96031.00
2022-08-03T00:30:12.048Z,96026.00
2022-08-03T00:32:41.382Z,96025.00
2022-08-03T00:35:29.362Z,96027.00
2022-08-03T00:37:59.852Z,96029.00
2022-08-03T00:40:27.114Z,96019.00
2022-08-03T00:42:59.279Z,96024.00
2022-08-03T00:45:37.855Z,96022.00
2022-08-03T00:48:06.369Z,96023.00
2022-08-03T00:50:54.184Z,96025.00
2022-08-03T00:53:21.409Z,96024.00
2022-08-03T00:55:48.357Z,96027.00
2022-08-03T00:58:15.433Z,96029.00
2022-08-03T01:00:42.450Z,96020.00
2022-08-03T01:03:11.850Z,96021.00
2022-08-03T01:06:04.134Z,96021.00
2022-08-03T01:08:43.638Z,96022.00
2022-08-03T01:11:14.830Z,96020.00
2022-08-03T01:14:03.563Z,96018.00
2022-08-03T01:16:37.228Z,96019.00
2022-08-03T01:19:39.921Z,96017.00
2022-08-03T01:22:45.435Z,96013.00
2022-08-03T01:25:21.816Z,96018.00
2022-08-03T01:28:26.554Z,96010.00
2022-08-03T01:30:57.081Z,96010.00
2022-08-03T01:33:35.505Z,96004.00
2022-08-03T01:36:05.266Z,96007.00
2022-08-03T01:38:42.238Z,96008.00
2022-08-03T01:41:12.672Z,95998.00
2022-08-03T01:44:27.357Z,96008.00
2022-08-03T01:46:28.998Z,96004.00
2022-08-03T01:48:56.665Z,96004.00
2022-08-03T01:51:23.645Z,96006.00
2022-08-03T01:54:11.656Z,95996.00
2022-08-03T01:56:41.314Z,95997.00
2022-08-03T01:59:10.021Z,95991.00
2022-08-03T02:02:15.433Z,95987.00
2022-08-03T02:04:26.171Z,95995.00
2022-08-03T02:07:01.334Z,95985.00
2022-08-03T02:09:30.963Z,95992.00
2022-08-03T02:11:58.803Z,95991.00
2022-08-03T02:14:27.284Z,95996.00
2022-08-03T02:16:54.952Z,95991.00
2022-08-03T02:19:23.534Z,95991.00
2022-08-03T02:21:56.674Z,95996.00
2022-08-03T02:24:29.603Z,95994.00
2022-08-03T02:26:57.408Z,95994.00
2022-08-03T02:29:40.333Z,95992.00
2022-08-03T02:32:15.108Z,95994.00
2022-08-03T02:34:45.455Z,95993.00
2022-08-03T02:37:13.418Z,95994.00
2022-08-03T02:39:42.106Z,95986.00
2022-08-03T02:42:10.027Z,95998.00
2022-08-03T02:44:39.530Z,95988.00
2022-08-03T02:47:09.174Z,95993.00
2022-08-03T02:49:49.977Z,95993.00
2022-08-03T02:52:23.512Z,95985.00
2022-08-03T02:54:53.723Z,95987.00
2022-08-03T02:57:21.828Z,95989.00
2022-08-03T02:59:49.683Z,95992.00
2022-08-03T03:02:18.628Z,95986.00
2022-08-03T03:05:53.145Z,95988.00
2022-08-03T03:07:51.370Z,95991.00
2022-08-03T03:10:22.776Z,95987.00
2022-08-03T03:12:56.191Z,95985.00
2022-08-03T03:15:27.280Z,95989.00
2022-08-03T03:17:54.663Z,95985.00
2022-08-03T03:20:29.654Z,95985.00
2022-08-03T03:23:02.194Z,95986.00
2022-08-03T03:25:31.185Z,95982.00
2022-08-03T03:28:00.027Z,95983.00
2022-08-03T03:30:27.731Z,95990.00
2022-08-03T03:32:54.893Z,95993.00
2022-08-03T03:35:22.149Z,95989.00
2022-08-03T03:37:49.122Z,95987.00
2022-08-03T03:40:16.148Z,95989.00
2022-08-03T03:42:43.083Z,95984.00
2022-08-03T03:45:10.684Z,95990.00
2022-08-03T03:47:38.393Z,95986.00
2022-08-03T03:50:06.746Z,95988.00
2022-08-03T03:52:34.507Z,95987.00
2022-08-03T03:55:01.954Z,95989.00
2022-08-03T03:57:29.588Z,95987.00
2022-08-03T03:59:56.725Z,95979.00
2022-08-03T04:02:23.819Z,95984.00
2022-08-03T04:05:09.393Z,95983.00
2022-08-03T04:08:18.717Z,95978.00
2022-08-03T04:11:03.252Z,95980.00
2022-08-03T04:13:34.758Z,95990.00
2022-08-03T04:16:02.354Z,95986.00
2022-08-03T04:18:31.773Z,95984.00
2022-08-03T04:21:03.483Z,95995.00
2022-08-03T04:23:34.455Z,95995.00
2022-08-03T04:26:03.369Z,95997.00
2022-08-03T04:28:32.059Z,96001.00
2022-08-03T04:31:00.174Z,96015.00
2022-08-03T04:33:29.569Z,96003.00
2022-08-03T04:36:02.582Z,96003.00
2022-08-03T04:38:33.314Z,96005.00
2022-08-03T04:41:01.285Z,96005.00
2022-08-03T04:43:29.743Z,96005.00
2022-08-03T04:45:57.033Z,96006.00
2022-08-03T04:48:24.593Z,96007.00
2022-08-03T04:50:52.139Z,96011.00
2022-08-03T04:53:19.601Z,96014.00
2022-08-03T04:55:46.908Z,96011.00
2022-08-03T04:58:13.964Z,96012.00
2022-08-03T05:00:40.981Z,96008.00
2022-08-03T05:03:20.560Z,96008.00
2022-08-03T05:06:01.997Z,96012.00
2022-08-03T05:08:46.270Z,96008.00
2022-08-03T05:11:16.695Z,96009.00
2022-08-03T05:13:45.090Z,96011.00
2022-08-03T05:16:13.989Z,96011.00
2022-08-03T05:18:42.112Z,96012.00
2022-08-03T05:21:10.184Z,96016.00
2022-08-03T05:23:37.934Z,96017.00
2022-08-03T05:26:04.990Z,96013.00
2022-08-03T05:28:31.958Z,96007.00
2022-08-03T05:30:59.319Z,96013.00
2022-08-03T05:33:26.451Z,96012.00
2022-08-03T05:36:03.020Z,96015.00
2022-08-03T05:38:34.896Z,96008.00
2022-08-03T05:41:22.065Z,96018.00
2022-08-03T05:43:52.391Z,96019.00
2022-08-03T05:46:19.593Z,96016.00
2022-08-03T05:48:46.919Z,96022.00
2022-08-03T05:51:14.002Z,96014.00
2022-08-03T05:53:42.905Z,96016.00
2022-08-03T05:56:14.330Z,96021.00
2022-08-03T05:58:46.911Z,96015.00
2022-08-03T06:01:15.481Z,96018.00
2022-08-03T06:03:42.671Z,96015.00
2022-08-03T06:06:09.881Z,96018.00
2022-08-03T06:08:37.209Z,96014.00
2022-08-03T06:11:04.899Z,96013.00
2022-08-03T06:13:32.300Z,96023.00
2022-08-03T06:15:59.539Z,96018.00
2022-08-03T06:18:26.783Z,96017.00
2022-08-03T06:20:55.036Z,96021.00
2022-08-03T06:23:22.457Z,96018.00
2022-08-03T06:25:49.699Z,96022.00
2022-08-03T06:28:51.642Z,96020.00
2022-08-03T06:31:06.471Z,96021.00
2022-08-03T06:34:30.881Z,96028.00
2022-08-03T06:36:21.031Z,96025.00
2022-08-03T06:38:48.016Z,96019.00
2022-08-03T06:41:15.112Z,96020.00
2022-08-03T06:44:03.030Z,96029.00
2022-08-03T06:46:29.401Z,96027.00
2022-08-03T06:48:56.777Z,96028.00
2022-08-03T06:52:04.287Z,96033.00
2022-08-03T06:54:11.046Z,96029.00
2022-08-03T06:56:38.531Z,96032.00
2022-08-03T06:59:05.604Z,96028.00
2022-08-03T07:01:32.702Z,96028.00
2022-08-03T07:04:00.604Z,96032.00
2022-08-03T07:06:27.755Z,96034.00
2022-08-03T07:08:59.228Z,96032.00
2022-08-03T07:11:28.678Z,96040.00
2022-08-03T07:13:56.437Z,96032.00
2022-08-03T07:16:23.453Z,96033.00
2022-08-03T07:18:50.480Z,96033.00
2022-08-03T07:21:17.452Z,96035.00
2022-08-03T07:23:44.477Z,96033.00
2022-08-03T07:26:11.893Z,96033.00
2022-08-03T07:28:38.973Z,96033.00
2022-08-03T07:31:06.338Z,96030.00
2022-08-03T07:33:33.416Z,96033.00
2022-08-03T07:36:00.394Z,96028.00
2022-08-03T07:38:27.505Z,96034.00
2022-08-03T07:40:54.508Z,96028.00
2022-08-03T07:43:21.542Z,96027.00
2022-08-03T07:45:48.595Z,96017.00
2022-08-03T07:48:15.894Z,96027.00
2022-08-03T07:50:42.940Z,96030.00
2022-08-03T07:53:09.982Z,96025.00
2022-08-03T07:55:37.156Z,96025.00
2022-08-03T07:58:09.888Z,96025.00
2022-08-03T08:00:37.457Z,96026.00
2022-08-03T08:03:04.871Z,96026.00
2022-08-03T08:05:32.235Z,96026.00
2022-08-03T08:07:59.971Z,96013.00
2022-08-03T08:10:27.034Z,96015.00
2022-08-03T08:12:54.775Z,96018.00
2022-08-03T08:15:22.069Z,96023.00
2022-08-03T08:17:54.156Z,96025.00
2022-08-03T08:20:28.104Z,96025.00
2022-08-03T08:23:01.872Z,96023.00
2022-08-03T08:25:31.448Z,96018.00
2022-08-03T08:28:29.190Z,96028.00
2022-08-03T08:30:49.862Z,96021.00
2022-08-03T08:33:23.018Z,96027.00
2022-08-03T08:35:53.190Z,96024.00
2022-08-03T08:38:20.505Z,96019.00
2022-08-03T08:40:48.470Z,96020.00
2022-08-03T08:43:15.803Z,96019.00
2022-08-03T08:45:42.862Z,96018.00
2022-08-03T08:48:10.898Z,96024.00
2022-08-03T08:50:39.281Z,96024.00
2022-08-03T08:53:09.889Z,96020.00
2022-08-03T08:55:58.731Z,96024.00
2022-08-03T08:58:41.630Z,96023.00
2022-08-03T09:01:08.804Z,96015.00
2022-08-03T09:03:36.393Z,96028.00
2022-08-03T09:06:04.094Z,96020.00
2022-08-03T09:08:32.675Z,96024.00
2022-08-03T09:11:00.393Z,96015.00
2022-08-03T09:13:27.512Z,96017.00
2022-08-03T09:16:14.374Z,96027.00
2022-08-03T09:18:46.242Z,96026.00
2022-08-03T09:21:30.102Z,96020.00
2022-08-03T09:24:02.828Z,96017.00
2022-08-03T09:26:32.186Z,96017.00
2022-08-03T09:29:12.879Z,96016.00
2022-08-03T09:31:44.360Z,96018.00
2022-08-03T09:34:14.064Z,96016.00
2022-08-03T09:36:43.042Z,96012.00
2022-08-03T09:39:12.568Z,96006.00
2022-08-03T09:41:45.313Z,96010.00
2022-08-03T09:44:24.404Z,96015.00
2022-08-03T09:46:56.946Z,96012.00
2022-08-03T09:49:24.712Z,96016.00
2022-08-03T09:52:33.283Z,96010.00
2022-08-03T09:54:40.347Z,96009.00
2022-08-03T09:57:07.383Z,96011.00
2022-08-03T09:59:34.746Z,96007.00
2022-08-03T10:02:02.133Z,96011.00
2022-08-03T10:04:29.325Z,96012.00
2022-08-03T10:07:08.408Z,96006.00
2022-08-03T10:09:36.610Z,96005.00
2022-08-03T10:12:13.875Z,96005.00
2022-08-03T10:14:42.196Z,96006.00
2022-08-03T10:17:12.655Z,96005.00
2022-08-03T10:19:41.668Z,96003.00
2022-08-03T10:22:30.112Z,95997.00
2022-08-03T10:25:01.251Z,96004.00
2022-08-03T10:27:32.773Z,96000.00
2022-08-03T10:30:04.178Z,95998.00
2022-08-03T10:32:34.814Z,95991.00
2022-08-03T10:35:19.663Z,95988.00
2022-08-03T10:38:04.489Z,95984.00
2022-08-03T10:40:47.979Z,95982.00
2022-08-03T10:43:42.884Z,95983.00
2022-08-03T10:46:10.644Z,95976.00
2022-08-03T10:48:38.217Z,95977.00
2022-08-03T10:51:06.862Z,95973.00
2022-08-03T10:53:35.617Z,95976.00
2022-08-03T10:56:28.632Z,95985.00
2022-08-03T10:59:10.655Z,95977.00
2022-08-03T11:01:58.297Z,95979.00
2022-08-03T11:04:26.768Z,95970.00
2022-08-03T11:07:15.796Z,95967.00
2022-08-03T11:09:45.030Z,95971.00
2022-08-03T11:12:30.506Z,95971.00
2022-08-03T11:15:17.208Z,95967.00
2022-08-03T11:18:11.295Z,95964.00
2022-08-03T11:20:56.664Z,95962.00
2022-08-03T11:24:05.099Z,95964.00
2022-08-03T11:26:31.700Z,95957.00
2022-08-03T11:29:28.348Z,95958.00
2022-08-03T11:31:55.389Z,95954.00
2022-08-03T11:34:22.541Z,95949.00
2022-08-03T11:37:21.991Z,95955.00
2022-08-03T11:39:51.349Z,95955.00
2022-08-03T11:42:24.865Z,95942.00
2022-08-03T11:44:57.129Z,95962.00
2022-08-03T11:47:27.207Z,95949.00
2022-08-03T11:49:57.432Z,95953.00
2022-08-03T11:52:27.348Z,95949.00
2022-08-03T11:54:56.922Z,95949.00
2022-08-03T11:59:10.668Z,95944.00
2022-08-03T12:00:40.756Z,95945.00
2022-08-03T12:03:14.398Z,95942.00
2022-08-03T12:05:52.967Z,95937.00
2022-08-03T12:08:33.613Z,95940.00
2022-08-03T12:11:05.920Z,95941.00
2022-08-03T12:14:08.861Z,95932.00
2022-08-03T12:16:30.675Z,95934.00
2022-08-03T12:19:05.029Z,95934.00
2022-08-03T12:21:32.553Z,95929.00
2022-08-03T12:24:02.279Z,95928.00
2022-08-03T12:26:30.194Z,95924.00
2022-08-03T12:28:57.798Z,95921.00
2022-08-03T12:31:25.136Z,95926.00
2022-08-03T12:34:04.250Z,95926.00
2022-08-03T12:36:33.869Z,95920.00
2022-08-03T12:39:04.096Z,95921.00
2022-08-03T12:41:34.788Z,95918.00
2022-08-03T12:44:04.022Z,95925.00
2022-08-03T12:46:47.508Z,95922.00
2022-08-03T12:49:17.098Z,95916.00
2022-08-03T12:51:44.154Z,95921.00
2022-08-03T12:54:24.412Z,95915.00
2022-08-03T12:57:01.081Z,95920.00
2022-08-03T12:59:35.488Z,95915.00
2022-08-03T13:02:23.612Z,95913.00
2022-08-03T13:04:52.303Z,95916.00
2022-08-03T13:07:20.208Z,95919.00
2022-08-03T13:09:48.411Z,95916.00
2022-08-03T13:12:30.017Z,95907.00
2022-08-03T13:14:59.055Z,95908.00
2022-08-03T13:17:26.930Z,95908.00
2022-08-03T13:19:54.965Z,95904.00
2022-08-03T13:22:24.225Z,95901.00
2022-08-03T13:24:52.762Z,95900.00
2022-08-03T13:27:23.365Z,95897.00
2022-08-03T13:30:08.830Z,95897.00
2022-08-03T13:32:36.388Z,95896.00
2022-08-03T13:35:04.182Z,95906.00
2022-08-03T13:37:32.649Z,95896.00
2022-08-03T13:40:02.487Z,95893.00
2022-08-03T13:42:32.198Z,95894.00
2022-08-03T13:45:00.008Z,95891.00
2022-08-03T13:47:28.059Z,95888.00
2022-08-03T13:50:01.781Z,95889.00
2022-08-03T13:52:34.995Z,95889.00
2022-08-03T13:55:06.485Z,95884.00
2022-08-03T13:58:04.732Z,95881.00
2022-08-03T14:00:27.967Z,95879.00
2022-08-03T14:03:13.220Z,95879.00
2022-08-03T14:05:43.036Z,95889.00
2022-08-03T14:08:10.720Z,95883.00
2022-08-03T14:10:40.379Z,95880.00
2022-08-03T14:13:07.870Z,95881.00
2022-08-03T14:15:37.749Z,95883.00
2022-08-03T14:18:12.992Z,95881.00
2022-08-03T14:20:49.117Z,95879.00
2022-08-03T14:23:21.306Z,95882.00
2022-08-03T14:25:50.449Z,95872.00
2022-08-03T14:28:22.779Z,95884.00
2022-08-03T14:30:51.769Z,95879.00
2022-08-03T14:33:18.910Z,95880.00
2022-08-03T14:35:49.379Z,95871.00
2022-08-03T14:38:17.691Z,95871.00
2022-08-03T14:40:44.913Z,95868.00
2022-08-03T14:43:12.142Z,95866.00
2022-08-03T14:45:40.315Z,95856.00
2022-08-03T14:50:34.599Z,95862.00
2022-08-03T14:50:55.446Z,95860.00
2022-08-03T14:53:22.807Z,95855.00
2022-08-03T14:55:51.901Z,95851.00
2022-08-03T14:58:23.462Z,95855.00
2022-08-03T15:00:51.657Z,95849.00
2022-08-03T15:03:23.876Z,95853.00
2022-08-03T15:05:56.245Z,95848.00
2022-08-03T15:08:25.119Z,95843.00
2022-08-03T15:10:53.166Z,95845.00
2022-08-03T15:13:20.944Z,95840.00
2022-08-03T15:15:48.534Z,95839.00
2022-08-03T15:18:15.924Z,95832.00
2022-08-03T15:20:45.872Z,95826.00
2022-08-03T15:23:14.883Z,95824.00
2022-08-03T15:26:02.191Z,95826.00
2022-08-03T15:28:30.457Z,95829.00
2022-08-03T15:30:58.049Z,95824.00
2022-08-03T15:33:25.064Z,95826.00
2022-08-03T15:35:53.340Z,95825.00
2022-08-03T15:38:22.969Z,95826.00
2022-08-03T15:40:58.958Z,95825.00
2022-08-03T15:43:25.933Z,95822.00
2022-08-03T15:48:40.727Z,95819.00
2022-08-03T15:51:08.339Z,95818.00
2022-08-03T15:53:35.774Z,95817.00
2022-08-03T15:56:09.718Z,95817.00
2022-08-03T15:59:09.488Z,95814.00
2022-08-03T16:01:26.330Z,95816.00
2022-08-03T16:03:53.464Z,95813.00
2022-08-03T16:06:29.867Z,95811.00
2022-08-03T16:09:23.460Z,95819.00
2022-08-03T16:11:55.062Z,95809.00
2022-08-03T16:14:32.247Z,95812.00
2022-08-03T16:17:05.447Z,95804.00
2022-08-03T16:19:32.535Z,95806.00
2022-08-03T16:22:00.469Z,95804.00
2022-08-03T16:24:28.295Z,95800.00
2022-08-03T16:26:56.374Z,95803.00
2022-08-03T16:29:24.031Z,95805.00
2022-08-03T16:31:52.492Z,95804.00
2022-08-03T16:34:20.731Z,95802.00
2022-08-03T16:36:47.840Z,95798.00
2022-08-03T16:39:15.643Z,95796.00
2022-08-03T16:41:54.475Z,95797.00
2022-08-03T16:44:32.131Z,95791.00
2022-08-03T16:46:59.772Z,95792.00
2022-08-03T16:49:53.820Z,95788.00
2022-08-03T16:52:16.757Z,95793.00
2022-08-03T16:54:50.556Z,95791.00
2022-08-03T16:57:56.382Z,95790.00
2022-08-03T17:00:12.314Z,95791.00
2022-08-03T17:03:00.561Z,95798.00
2022-08-03T17:05:43.539Z,95791.00
2022-08-03T17:08:14.070Z,95800.00
2022-08-03T17:10:45.557Z,95788.00
2022-08-03T17:13:22.043Z,95804.00
2022-08-03T17:15:58.036Z,95807.00
2022-08-03T17:18:35.135Z,95798.00
2022-08-03T17:21:05.810Z,95792.00
2022-08-03T17:23:47.879Z,95807.00
2022-08-03T17:26:21.547Z,95808.00
2022-08-03T17:28:57.942Z,95801.00
2022-08-03T17:31:32.178Z,95808.00
2022-08-03T17:34:02.034Z,95806.00
2022-08-03T17:37:02.001Z,95802.00
2022-08-03T17:39:36.183Z,95800.00
2022-08-03T17:42:29.248Z,95796.00
2022-08-03T17:44:57.733Z,95803.00
2022-08-03T17:47:29.167Z,95802.00
2022-08-03T17:50:24.648Z,95810.00
2022-08-03T17:53:07.137Z,95811.00
2022-08-03T17:55:54.958Z,95812.00
2022-08-03T17:58:43.746Z,95817.00
2022-08-03T18:02:00.601Z,95818.00
2022-08-03T18:04:30.181Z,95829.00
2022-08-03T18:07:00.023Z,95822.00
2022-08-03T18:10:04.078Z,95829.00
2022-08-03T18:12:44.164Z,95833.00
2022-08-03T18:15:20.849Z,95833.00
2022-08-03T18:17:55.552Z,95833.00
2022-08-03T18:20:32.112Z,95839.00
2022-08-03T18:23:04.985Z,95836.00
2022-08-03T18:25:49.142Z,95826.00
2022-08-03T18:28:19.122Z,95836.00
2022-08-03T18:30:54.165Z,95833.00
2022-08-03T18:34:19.597Z,95831.00
2022-08-03T18:36:21.965Z,95842.00
2022-08-03T18:38:59.748Z,95840.00
2022-08-03T18:41:32.217Z,95830.00
2022-08-03T18:44:08.368Z,95834.00
2022-08-03T18:46:52.558Z,95833.00
2022-08-03T18:49:38.410Z,95834.00
2022-08-03T18:52:12.511Z,95835.00
2022-08-03T18:55:21.541Z,95822.00
2022-08-03T18:58:17.773Z,95830.00
2022-08-03T19:01:04.955Z,95833.00
2022-08-03T19:03:48.408Z,95838.00
2022-08-03T19:06:23.042Z,95844.00
2022-08-03T19:09:04.230Z,95836.00
2022-08-03T19:12:14.016Z,95846.00
2022-08-03T19:14:43.124Z,95841.00
2022-08-03T19:17:13.239Z,95843.00
2022-08-03T19:19:44.909Z,95845.00
2022-08-03T19:22:15.881Z,95834.00
2022-08-03T19:24:46.000Z,95843.00
2022-08-03T19:27:14.189Z,95850.00
2022-08-03T19:29:58.945Z,95849.00
2022-08-03T19:32:31.347Z,95855.00
2022-08-03T19:35:01.067Z,95851.00
2022-08-03T19:37:38.235Z,95863.00
2022-08-03T19:40:10.765Z,95860.00
2022-08-03T19:42:41.445Z,95857.00
2022-08-03T19:45:18.996Z,95861.00
2022-08-03T19:47:50.816Z,95858.00
2022-08-03T19:50:19.649Z,95862.00
2022-08-03T19:52:48.835Z,95855.00
2022-08-03T19:55:17.576Z,95859.00
2022-08-03T19:57:49.084Z,95853.00
2022-08-03T20:00:19.991Z,95862.00
2022-08-03T20:02:54.028Z,95859.00
2022-08-03T20:05:21.160Z,95865.00
2022-08-03T20:07:50.020Z,95861.00
2022-08-03T20:10:18.117Z,95866.00
2022-08-03T20:12:46.536Z,95868.00
2022-08-03T20:15:13.695Z,95861.00
2022-08-03T20:17:56.178Z,95863.00
2022-08-03T20:20:31.048Z,95865.00
2022-08-03T20:23:00.053Z,95869.00
2022-08-03T20:25:38.934Z,95861.00
2022-08-03T20:28:29.385Z,95857.00
2022-08-03T20:30:56.891Z,95857.00
2022-08-03T20:33:27.955Z,95854.00
2022-08-03T20:36:15.893Z,95854.00
2022-08-03T20:38:47.366Z,95853.00
2022-08-03T20:41:18.485Z,95849.00
2022-08-03T20:43:46.282Z,95857.00
2022-08-03T20:46:32.789Z,95850.00
2022-08-03T20:49:05.939Z,95852.00
2022-08-03T20:51:50.503Z,95853.00
2022-08-03T20:54:29.988Z,95851.00
2022-08-03T20:57:00.419Z,95852.00
2022-08-03T20:59:35.090Z,95852.00
2022-08-03T21:02:05.949Z,95848.00
2022-08-03T21:04:35.922Z,95847.00
2022-08-03T21:07:09.795Z,95851.00
2022-08-03T21:09:51.883Z,95851.00
2022-08-03T21:12:26.979Z,95844.00
2022-08-03T21:15:03.233Z,95837.00
2022-08-03T21:17:41.058Z,95839.00
2022-08-03T21:20:10.625Z,95842.00
2022-08-03T21:22:39.161Z,95844.00
2022-08-03T21:25:09.333Z,95841.00
2022-08-03T21:27:37.122Z,95845.00
2022-08-03T21:30:07.574Z,95840.00
2022-08-03T21:32:34.816Z,95842.00
2022-08-03T21:35:02.271Z,95845.00
2022-08-03T21:37:29.245Z,95836.00
2022-08-03T21:39:56.803Z,95836.00
2022-08-03T21:42:24.234Z,95841.00
2022-08-03T21:44:52.437Z,95841.00
2022-08-03T21:47:21.830Z,95839.00
2022-08-03T21:50:08.495Z,95840.00
2022-08-03T21:52:43.141Z,95844.00
2022-08-03T21:55:18.640Z,95841.00
2022-08-03T21:57:52.932Z,95837.00
2022-08-03T22:00:23.118Z,95837.00
2022-08-03T22:02:56.226Z,95838.00
2022-08-03T22:05:42.432Z,95836.00
2022-08-03T22:08:10.055Z,95842.00
2022-08-03T22:10:37.230Z,95835.00
2022-08-03T22:13:04.402Z,95838.00
2022-08-03T22:15:32.301Z,95835.00
2022-08-03T22:18:03.325Z,95837.00
2022-08-03T22:20:30.651Z,95834.00
2022-08-03T22:23:02.223Z,95836.00
2022-08-03T22:25:35.134Z,95845.00
2022-08-03T22:28:08.552Z,95844.00
2022-08-03T22:30:36.746Z,95842.00
2022-08-03T22:33:11.352Z,95850.00
2022-08-03T22:35:47.495Z,95851.00
2022-08-03T22:38:15.917Z,95861.00
2022-08-03T22:40:43.159Z,95861.00
2022-08-03T22:43:10.389Z,95862.00
2022-08-03T22:46:07.694Z,95861.00
2022-08-03T22:48:26.403Z,95874.00
2022-08-03T22:50:53.390Z,95877.00
2022-08-03T22:53:21.790Z,95876.00
2022-08-03T22:55:49.718Z,95877.00
2022-08-03T23:01:03.439Z,95878.00
2022-08-03T23:04:00.616Z,95874.00
2022-08-03T23:06:37.179Z,95870.00
2022-08-03T23:09:10.241Z,95875.00
2022-08-03T23:11:45.199Z,95874.00
2022-08-03T23:14:18.268Z,95867.00
2022-08-03T23:16:46.719Z,95872.00
2022-08-03T23:19:17.006Z,95879.00
2022-08-03T23:22:00.346Z,95872.00
2022-08-03T23:24:30.636Z,95877.00
2022-08-03T23:26:59.174Z,95870.00
2022-08-03T23:29:26.443Z,95870.00
2022-08-03T23:31:54.009Z,95866.00
2022-08-03T23:34:40.202Z,95873.00
2022-08-03T23:37:07.420Z,95876.00
2022-08-03T23:39:34.963Z,95875.00
2022-08-03T23:42:03.069Z,95883.00
2022-08-03T23:44:31.037Z,95874.00
2022-08-03T23:46:58.294Z,95874.00
2022-08-03T23:49:25.357Z,95867.00
2022-08-03T23:52:07.808Z,95877.00
2022-08-03T23:54:53.642Z,95876.00
2022-08-03T23:57:23.873Z,95881.00
